Time;durP1;ratioP1;P1;durP2;ratioP2;P2;SDS_P1;SDS_P2;PMS_P1;PMS_P2;Temp;Humidity;BMP_temperature;BMP_pressure;BME280_temperature;BME280_humidity;BME280_pressure;Samples;Min_cycle;Max_cycle;Signal;HPM_P1;HPM_P2
2023/04/23 00:00:30;;;;;;;23.30;20.80;;;;;;;;;;5060947;28;20423;-79
2023/04/23 00:02:57;;;;;;;22.48;20.08;;;;;;;;;;5063714;28;20507;-79
2023/04/23 00:05:27;;;;;;;25.27;22.52;;;;;;;;;;5053254;28;20417;-80
2023/04/23 00:07:53;;;;;;;23.73;21.27;;;;;;;;;;5059307;28;20961;-80
2023/04/23 00:10:19;;;;;;;26.58;23.77;;;;;;;;;;5060318;28;20425;-80
2023/04/23 00:12:46;;;;;;;27.13;23.92;;;;;;;;;;5058237;28;20419;-80
2023/04/23 00:15:14;;;;;;;27.05;23.63;;;;;;;;;;5053919;28;20423;-80
2023/04/23 00:17:41;;;;;;;30.00;26.20;;;;;;;;;;5060380;28;20505;-78
2023/04/23 00:20:08;;;;;;;30.60;25.55;;;;;;;;;;5061209;28;20999;-79
2023/04/23 00:22:35;;;;;;;29.73;25.30;;;;;;;;;;5059133;28;20459;-80
2023/04/23 00:25:02;;;;;;;32.00;27.95;;;;;;;;;;5054457;28;20456;-80
2023/04/23 00:27:28;;;;;;;32.13;26.90;;;;;;;;;;5057661;28;20508;-81
2023/04/23 00:29:56;;;;;;;33.30;28.25;;;;;;;;;;5059842;28;20414;-78
2023/04/23 00:32:24;;;;;;;32.80;28.10;;;;;;;;;;5062082;28;20408;-80
2023/04/23 00:34:50;;;;;;;33.13;28.65;;;;;;;;;;5058732;28;20945;-80
2023/04/23 00:37:17;;;;;;;33.60;27.80;;;;;;;;;;5058223;28;20418;-80
2023/04/23 00:39:43;;;;;;;38.30;30.70;;;;;;;;;;5054740;28;20412;-80
2023/04/23 00:42:12;;;;;;;34.35;29.55;;;;;;;;;;5058254;28;20913;-80
2023/04/23 00:44:40;;;;;;;36.65;29.88;;;;;;;;;;5060235;28;20467;-80
2023/04/23 00:47:07;;;;;;;34.45;28.58;;;;;;;;;;5060593;28;20453;-80
2023/04/23 00:49:35;;;;;;;40.88;32.15;;;;;;;;;;5061782;28;20407;-79
2023/04/23 00:52:01;;;;;;;40.42;31.60;;;;;;;;;;5057474;28;20437;-79
2023/04/23 00:54:28;;;;;;;41.63;31.13;;;;;;;;;;5061487;28;20410;-79
2023/04/23 00:56:56;;;;;;;43.17;32.83;;;;;;;;;;5060849;28;20425;-79
2023/04/23 00:59:23;;;;;;;43.85;33.83;;;;;;;;;;5054953;28;20423;-79
2023/04/23 01:01:50;;;;;;;45.30;32.15;;;;;;;;;;5059757;28;20424;-79
2023/04/23 01:04:17;;;;;;;44.40;32.70;;;;;;;;;;5059545;28;20416;-79
2023/04/23 01:06:47;;;;;;;44.60;32.55;;;;;;;;;;5061510;28;20417;-79
2023/04/23 01:09:14;;;;;;;46.45;32.50;;;;;;;;;;5057992;28;20539;-81
2023/04/23 01:11:43;;;;;;;42.55;31.80;;;;;;;;;;5050347;28;20413;-78
2023/04/23 01:14:09;;;;;;;46.63;33.00;;;;;;;;;;5056048;28;20443;-79
2023/04/23 01:16:37;;;;;;;47.72;34.03;;;;;;;;;;5058732;28;20456;-79
2023/04/23 01:19:04;;;;;;;47.15;34.70;;;;;;;;;;5057097;28;21122;-79
2023/04/23 01:21:31;;;;;;;44.83;33.03;;;;;;;;;;5057038;28;20413;-79
2023/04/23 01:23:59;;;;;;;45.22;33.20;;;;;;;;;;5056460;28;20750;-79
2023/04/23 01:26:25;;;;;;;49.10;35.17;;;;;;;;;;5056733;28;20420;-79
2023/04/23 01:28:52;;;;;;;50.05;34.47;;;;;;;;;;5061479;28;20432;-79
2023/04/23 01:31:19;;;;;;;46.33;34.45;;;;;;;;;;5051518;28;20436;-79
2023/04/23 01:33:45;;;;;;;46.70;34.58;;;;;;;;;;5059191;28;20417;-80
2023/04/23 01:36:12;;;;;;;46.63;34.28;;;;;;;;;;5063342;28;20485;-79
2023/04/23 01:38:39;;;;;;;48.00;34.65;;;;;;;;;;5059624;28;20452;-79
2023/04/23 01:41:07;;;;;;;44.80;33.65;;;;;;;;;;5062505;28;20428;-79
2023/04/23 01:43:35;;;;;;;47.88;34.88;;;;;;;;;;5060462;28;20413;-79
2023/04/23 01:46:01;;;;;;;46.08;34.30;;;;;;;;;;5047982;28;20407;-80
2023/04/23 01:48:28;;;;;;;44.90;33.20;;;;;;;;;;5056524;28;20435;-79
2023/04/23 01:50:54;;;;;;;44.00;33.58;;;;;;;;;;5058361;28;20423;-79
2023/04/23 01:53:21;;;;;;;41.63;31.35;;;;;;;;;;5060330;28;20432;-79
2023/04/23 01:55:47;;;;;;;42.78;31.88;;;;;;;;;;5061852;28;20428;-79
2023/04/23 01:58:15;;;;;;;44.88;31.90;;;;;;;;;;5059157;28;20415;-79
2023/04/23 02:00:43;;;;;;;44.53;31.75;;;;;;;;;;5056066;28;20436;-79
2023/04/23 02:03:09;;;;;;;44.20;32.70;;;;;;;;;;5057154;28;20415;-79
2023/04/23 02:05:36;;;;;;;41.00;31.75;;;;;;;;;;5058883;28;20443;-79
2023/04/23 02:08:03;;;;;;;43.67;32.40;;;;;;;;;;5056304;28;20809;-80
2023/04/23 02:10:30;;;;;;;45.58;31.02;;;;;;;;;;5059380;28;20424;-80
2023/04/23 02:12:57;;;;;;;41.50;31.47;;;;;;;;;;5059378;28;20991;-80
2023/04/23 02:15:25;;;;;;;44.80;31.92;;;;;;;;;;5055153;28;20423;-80
2023/04/23 02:17:52;;;;;;;40.97;29.77;;;;;;;;;;5055926;28;20786;-80
2023/04/23 02:20:18;;;;;;;41.28;30.90;;;;;;;;;;5062273;28;20945;-80
2023/04/23 02:22:46;;;;;;;41.28;29.02;;;;;;;;;;5055493;28;20467;-80
2023/04/23 02:25:16;;;;;;;42.45;31.40;;;;;;;;;;5056543;28;20928;-80
2023/04/23 02:27:42;;;;;;;42.85;30.55;;;;;;;;;;5059568;28;20419;-80
2023/04/23 02:30:10;;;;;;;39.00;28.30;;;;;;;;;;5056986;28;20433;-80
2023/04/23 02:32:37;;;;;;;38.65;29.58;;;;;;;;;;5048256;28;20435;-80
2023/04/23 02:35:05;;;;;;;37.50;28.15;;;;;;;;;;5056333;28;20419;-80
2023/04/23 02:37:32;;;;;;;36.87;27.87;;;;;;;;;;5059440;28;20507;-78
2023/04/23 02:39:58;;;;;;;39.10;28.77;;;;;;;;;;5061104;28;20412;-80
2023/04/23 02:42:25;;;;;;;41.50;29.70;;;;;;;;;;5056679;28;20423;-79
2023/04/23 02:44:51;;;;;;;37.55;27.67;;;;;;;;;;5054302;28;20762;-79
2023/04/23 02:47:17;;;;;;;36.08;27.10;;;;;;;;;;5050062;28;20423;-79
2023/04/23 02:49:45;;;;;;;36.17;27.48;;;;;;;;;;5056721;28;20451;-79
2023/04/23 02:52:12;;;;;;;35.70;26.90;;;;;;;;;;5057376;28;20431;-81
2023/04/23 02:54:38;;;;;;;38.25;25.80;;;;;;;;;;5059622;28;20409;-80
2023/04/23 02:57:05;;;;;;;38.45;27.17;;;;;;;;;;5060428;28;20528;-79
2023/04/23 02:59:31;;;;;;;35.83;25.97;;;;;;;;;;5055667;28;20436;-80
2023/04/23 03:01:58;;;;;;;37.97;27.77;;;;;;;;;;5050153;28;20440;-80
2023/04/23 03:04:26;;;;;;;39.25;27.92;;;;;;;;;;5055430;28;20483;-79
2023/04/23 03:06:54;;;;;;;36.13;26.25;;;;;;;;;;5045166;28;20417;-78
2023/04/23 03:09:23;;;;;;;39.40;26.20;;;;;;;;;;5054504;28;20894;-80
2023/04/23 03:11:51;;;;;;;34.72;26.10;;;;;;;;;;5058569;28;20439;-81
2023/04/23 03:14:17;;;;;;;39.47;27.45;;;;;;;;;;5051340;28;20420;-78
2023/04/23 03:16:43;;;;;;;37.17;26.50;;;;;;;;;;5052830;28;20429;-80
2023/04/23 03:19:10;;;;;;;34.95;26.33;;;;;;;;;;5061406;28;20411;-81
2023/04/23 03:21:36;;;;;;;39.75;25.70;;;;;;;;;;5058511;28;20414;-79
2023/04/23 03:24:05;;;;;;;36.30;27.27;;;;;;;;;;5056021;28;20428;-78
2023/04/23 03:26:31;;;;;;;35.20;25.42;;;;;;;;;;5055179;28;20454;-79
2023/04/23 03:28:58;;;;;;;36.35;25.58;;;;;;;;;;5058867;28;20455;-79
2023/04/23 03:31:24;;;;;;;38.78;26.73;;;;;;;;;;5055230;28;20428;-80
2023/04/23 03:33:51;;;;;;;38.58;26.60;;;;;;;;;;5049093;28;20406;-81
2023/04/23 03:36:18;;;;;;;40.33;27.02;;;;;;;;;;5055610;28;20413;-79
2023/04/23 03:38:44;;;;;;;36.70;26.05;;;;;;;;;;5051970;28;20407;-79
2023/04/23 03:41:12;;;;;;;34.63;25.60;;;;;;;;;;5054659;28;20424;-81
2023/04/23 03:43:38;;;;;;;36.00;25.50;;;;;;;;;;5059666;28;20512;-80
2023/04/23 03:46:05;;;;;;;36.25;26.52;;;;;;;;;;5050329;28;20450;-81
2023/04/23 03:48:32;;;;;;;38.13;26.80;;;;;;;;;;5053118;28;20928;-80
2023/04/23 03:50:58;;;;;;;36.58;27.25;;;;;;;;;;5057980;28;20414;-80
2023/04/23 03:53:25;;;;;;;36.40;26.52;;;;;;;;;;5056963;28;20428;-80
2023/04/23 03:55:51;;;;;;;39.75;26.30;;;;;;;;;;5060528;28;20489;-79
2023/04/23 03:58:18;;;;;;;37.05;26.80;;;;;;;;;;5060645;28;20897;-78
2023/04/23 04:00:46;;;;;;;39.00;27.73;;;;;;;;;;5059123;28;20410;-79
2023/04/23 04:03:12;;;;;;;36.63;27.00;;;;;;;;;;5056312;28;20431;-78
2023/04/23 04:05:38;;;;;;;38.45;28.13;;;;;;;;;;5060205;28;20428;-79
2023/04/23 04:08:05;;;;;;;37.67;26.83;;;;;;;;;;5056786;28;20500;-80
2023/04/23 04:10:31;;;;;;;38.63;27.98;;;;;;;;;;5061902;28;20433;-79
2023/04/23 04:12:57;;;;;;;38.70;26.13;;;;;;;;;;5059634;28;20411;-79
2023/04/23 04:15:25;;;;;;;39.55;27.60;;;;;;;;;;5054333;28;20916;-79
2023/04/23 04:17:52;;;;;;;35.88;25.98;;;;;;;;;;5052416;28;20428;-81
2023/04/23 04:20:18;;;;;;;37.42;27.58;;;;;;;;;;5060563;28;20412;-79
2023/04/23 04:22:45;;;;;;;38.65;28.17;;;;;;;;;;5050773;28;20498;-81
2023/04/23 04:25:12;;;;;;;44.15;29.50;;;;;;;;;;5054491;28;20415;-81
2023/04/23 04:27:40;;;;;;;39.95;28.80;;;;;;;;;;5064640;28;20417;-81
2023/04/23 04:30:08;;;;;;;40.53;29.40;;;;;;;;;;5057353;28;20421;-80
2023/04/23 04:32:37;;;;;;;42.05;30.20;;;;;;;;;;5056735;28;20953;-79
2023/04/23 04:35:04;;;;;;;43.35;29.25;;;;;;;;;;5050834;28;20915;-80
2023/04/23 04:37:30;;;;;;;39.13;29.13;;;;;;;;;;5050098;28;20413;-80
2023/04/23 04:39:57;;;;;;;41.78;29.27;;;;;;;;;;5056838;28;20408;-80
2023/04/23 04:42:24;;;;;;;37.50;28.25;;;;;;;;;;5059460;28;20439;-79
2023/04/23 04:44:51;;;;;;;40.75;28.80;;;;;;;;;;5057121;28;20416;-79
2023/04/23 04:47:18;;;;;;;43.53;31.02;;;;;;;;;;5059765;28;20944;-78
2023/04/23 04:49:47;;;;;;;43.83;31.70;;;;;;;;;;5056299;28;20416;-78
2023/04/23 04:52:13;;;;;;;40.83;29.45;;;;;;;;;;5063207;28;20423;-79
2023/04/23 04:54:40;;;;;;;38.33;29.73;;;;;;;;;;5054370;28;20413;-79
2023/04/23 04:57:07;;;;;;;43.03;30.90;;;;;;;;;;5059599;28;20446;-81
2023/04/23 04:59:33;;;;;;;38.20;28.92;;;;;;;;;;5059668;28;20413;-79
2023/04/23 05:01:59;;;;;;;38.25;29.33;;;;;;;;;;5056253;28;20415;-80
2023/04/23 05:04:26;;;;;;;44.13;30.80;;;;;;;;;;5062225;28;20412;-79
2023/04/23 05:06:53;;;;;;;40.80;29.83;;;;;;;;;;5057025;28;20425;-79
2023/04/23 05:09:20;;;;;;;42.60;30.92;;;;;;;;;;5062243;28;20413;-79
2023/04/23 05:11:46;;;;;;;40.93;31.17;;;;;;;;;;5057351;28;20531;-79
2023/04/23 05:14:12;;;;;;;44.72;31.30;;;;;;;;;;5063139;28;20422;-80
2023/04/23 05:16:39;;;;;;;46.58;32.90;;;;;;;;;;5065475;28;20440;-79
2023/04/23 05:19:07;;;;;;;49.03;33.40;;;;;;;;;;5059069;28;20404;-79
2023/04/23 05:21:33;;;;;;;46.70;32.20;;;;;;;;;;5057191;28;20421;-79
2023/04/23 05:24:01;;;;;;;43.45;30.98;;;;;;;;;;5057622;28;20778;-79
2023/04/23 05:26:27;;;;;;;47.30;33.40;;;;;;;;;;5058424;28;20417;-79
2023/04/23 05:28:54;;;;;;;44.80;31.92;;;;;;;;;;5059143;28;20415;-79
2023/04/23 05:31:20;;;;;;;42.57;31.10;;;;;;;;;;5054057;28;20999;-79
2023/04/23 05:33:47;;;;;;;44.85;33.17;;;;;;;;;;5064142;28;20411;-79
2023/04/23 05:36:13;;;;;;;46.92;32.80;;;;;;;;;;5054984;28;20424;-79
2023/04/23 05:38:39;;;;;;;46.97;33.25;;;;;;;;;;5054743;28;20432;-79
2023/04/23 05:41:07;;;;;;;47.92;33.30;;;;;;;;;;5057888;28;20838;-79
2023/04/23 05:43:33;;;;;;;45.17;31.37;;;;;;;;;;5048174;28;20432;-80
2023/04/23 05:46:01;;;;;;;42.67;30.83;;;;;;;;;;5056270;28;20427;-79
2023/04/23 05:48:28;;;;;;;43.67;30.98;;;;;;;;;;5048677;28;20435;-78
2023/04/23 05:50:54;;;;;;;40.80;29.38;;;;;;;;;;5056020;28;20477;-79
2023/04/23 05:53:20;;;;;;;43.03;31.20;;;;;;;;;;5056839;28;20429;-79
2023/04/23 05:55:47;;;;;;;43.15;31.30;;;;;;;;;;5053477;28;20425;-79
2023/04/23 05:58:15;;;;;;;45.95;31.70;;;;;;;;;;5056728;28;20429;-79
2023/04/23 06:00:41;;;;;;;47.97;32.72;;;;;;;;;;5059530;28;20613;-81
2023/04/23 06:03:08;;;;;;;45.65;33.25;;;;;;;;;;5058993;28;20787;-79
2023/04/23 06:05:34;;;;;;;45.53;33.33;;;;;;;;;;5059767;28;20416;-81
2023/04/23 06:08:01;;;;;;;43.50;31.67;;;;;;;;;;5055995;28;20421;-80
2023/04/23 06:10:28;;;;;;;44.67;32.20;;;;;;;;;;5045882;28;20936;-79
2023/04/23 06:12:55;;;;;;;45.67;32.90;;;;;;;;;;5053829;28;20416;-79
2023/04/23 06:15:25;;;;;;;42.42;31.67;;;;;;;;;;5053478;28;20432;-78
2023/04/23 06:17:52;;;;;;;46.97;33.93;;;;;;;;;;5052612;28;20933;-79
2023/04/23 06:20:18;;;;;;;48.20;32.65;;;;;;;;;;5048451;28;20416;-80
2023/04/23 06:22:46;;;;;;;49.25;33.85;;;;;;;;;;5061188;28;20413;-80
2023/04/23 06:25:12;;;;;;;47.60;34.03;;;;;;;;;;5053876;28;20781;-80
2023/04/23 06:27:39;;;;;;;45.85;32.53;;;;;;;;;;5060352;28;20886;-81
2023/04/23 06:30:06;;;;;;;47.22;34.10;;;;;;;;;;5060573;28;20428;-79
2023/04/23 06:32:34;;;;;;;45.28;32.50;;;;;;;;;;5050090;28;20413;-81
2023/04/23 06:35:00;;;;;;;44.60;33.22;;;;;;;;;;5057357;28;20449;-78
2023/04/23 06:37:29;;;;;;;43.05;32.28;;;;;;;;;;5051015;28;20803;-80
2023/04/23 06:39:56;;;;;;;46.13;33.28;;;;;;;;;;5053369;28;20838;-80
2023/04/23 06:42:22;;;;;;;45.40;31.95;;;;;;;;;;5059679;28;20405;-79
2023/04/23 06:44:50;;;;;;;44.23;32.70;;;;;;;;;;5045650;28;20531;-79
2023/04/23 06:47:17;;;;;;;44.67;33.53;;;;;;;;;;5057228;28;20426;-79
2023/04/23 06:49:46;;;;;;;45.15;32.47;;;;;;;;;;5053632;28;20433;-80
2023/04/23 06:52:13;;;;;;;44.90;33.00;;;;;;;;;;5051665;28;20430;-80
2023/04/23 06:54:39;;;;;;;46.00;33.30;;;;;;;;;;5058953;28;20672;-80
2023/04/23 06:57:05;;;;;;;47.60;34.15;;;;;;;;;;5056957;28;20435;-80
2023/04/23 06:59:32;;;;;;;47.92;34.67;;;;;;;;;;5053366;28;20405;-80
2023/04/23 07:01:58;;;;;;;52.65;35.10;;;;;;;;;;5056483;28;20419;-80
2023/04/23 07:04:24;;;;;;;49.47;34.90;;;;;;;;;;5053694;28;20412;-80
2023/04/23 07:06:53;;;;;;;48.50;33.83;;;;;;;;;;5055163;28;20421;-80
2023/04/23 07:09:20;;;;;;;45.47;34.00;;;;;;;;;;5059333;28;20421;-80
2023/04/23 07:11:46;;;;;;;45.50;35.97;;;;;;;;;;5056640;28;20456;-80
2023/04/23 07:14:12;;;;;;;50.33;35.58;;;;;;;;;;5058695;28;20476;-80
2023/04/23 07:16:39;;;;;;;45.93;33.70;;;;;;;;;;5050967;28;20979;-80
2023/04/23 07:19:05;;;;;;;46.20;32.75;;;;;;;;;;5057626;28;20409;-80
2023/04/23 07:21:32;;;;;;;43.15;32.45;;;;;;;;;;5058807;28;20425;-80
2023/04/23 07:24:05;;;;;;;45.75;33.10;;;;;;;;;;5055970;28;20808;-80
2023/04/23 07:26:32;;;;;;;44.80;32.92;;;;;;;;;;5055297;28;20773;-80
2023/04/23 07:28:58;;;;;;;46.40;34.75;;;;;;;;;;5061492;28;20417;-80
2023/04/23 07:31:25;;;;;;;43.50;32.47;;;;;;;;;;5056885;28;20417;-80
2023/04/23 07:33:51;;;;;;;43.45;31.33;;;;;;;;;;5054192;28;20469;-80
2023/04/23 07:36:17;;;;;;;42.67;32.42;;;;;;;;;;5060463;28;20417;-80
2023/04/23 07:38:44;;;;;;;44.45;33.47;;;;;;;;;;5061994;28;20417;-80
2023/04/23 07:41:11;;;;;;;44.33;33.65;;;;;;;;;;5067669;28;20433;-80
2023/04/23 07:43:38;;;;;;;43.80;33.97;;;;;;;;;;5064057;28;20417;-80
2023/04/23 07:46:05;;;;;;;45.42;34.45;;;;;;;;;;5056283;28;20425;-80
2023/04/23 07:48:33;;;;;;;43.95;32.67;;;;;;;;;;5056020;28;20417;-80
2023/04/23 07:50:59;;;;;;;43.40;33.22;;;;;;;;;;5060524;28;20983;-80
2023/04/23 07:53:27;;;;;;;42.78;33.28;;;;;;;;;;5066272;28;20414;-80
2023/04/23 07:55:54;;;;;;;42.20;33.70;;;;;;;;;;5052682;28;20784;-79
2023/04/23 07:58:22;;;;;;;38.30;29.80;;;;;;;;;;5062199;28;20423;-79
2023/04/23 08:00:48;;;;;;;42.45;32.30;;;;;;;;;;5063608;28;20417;-79
2023/04/23 08:03:15;;;;;;;40.03;30.92;;;;;;;;;;5055847;28;20452;-79
2023/04/23 08:05:41;;;;;;;40.50;31.17;;;;;;;;;;5057749;28;20410;-81
2023/04/23 08:08:08;;;;;;;41.65;32.03;;;;;;;;;;5056007;28;20491;-79
2023/04/23 08:10:35;;;;;;;42.15;31.77;;;;;;;;;;5055857;28;20428;-79
2023/04/23 08:13:01;;;;;;;40.83;31.35;;;;;;;;;;5076550;28;20895;-79
2023/04/23 08:15:29;;;;;;;40.25;31.45;;;;;;;;;;5060314;28;20415;-80
2023/04/23 08:17:56;;;;;;;43.57;32.37;;;;;;;;;;5059974;28;20468;-81
2023/04/23 08:20:23;;;;;;;41.80;31.90;;;;;;;;;;5057066;28;20417;-78
2023/04/23 08:22:52;;;;;;;42.78;31.92;;;;;;;;;;5055742;28;20419;-81
2023/04/23 08:25:20;;;;;;;42.70;32.53;;;;;;;;;;5053582;28;20549;-80
2023/04/23 08:27:47;;;;;;;41.17;30.33;;;;;;;;;;5058765;28;20419;-80
2023/04/23 08:30:13;;;;;;;41.83;32.47;;;;;;;;;;5061911;28;20419;-80
2023/04/23 08:32:43;;;;;;;40.03;30.30;;;;;;;;;;5056501;28;20451;-80
2023/04/23 08:35:09;;;;;;;39.45;30.13;;;;;;;;;;5061404;28;20784;-80
2023/04/23 08:37:37;;;;;;;40.40;30.00;;;;;;;;;;5062139;28;20408;-80
2023/04/23 08:40:05;;;;;;;41.70;31.83;;;;;;;;;;5054826;28;20479;-80
2023/04/23 08:42:37;;;;;;;37.25;29.75;;;;;;;;;;5055183;28;20850;-80
2023/04/23 08:45:04;;;;;;;38.83;29.52;;;;;;;;;;5053867;28;20411;-81
2023/04/23 08:47:32;;;;;;;37.92;29.33;;;;;;;;;;5060574;28;20805;-81
2023/04/23 08:50:00;;;;;;;36.22;27.80;;;;;;;;;;5059419;28;20408;-81
2023/04/23 08:52:30;;;;;;;38.65;30.02;;;;;;;;;;5052111;28;20424;-81
2023/04/23 08:54:59;;;;;;;36.85;28.83;;;;;;;;;;5056046;28;20420;-81
2023/04/23 08:57:27;;;;;;;39.20;30.10;;;;;;;;;;5058999;28;20962;-81
2023/04/23 08:59:54;;;;;;;38.15;29.30;;;;;;;;;;5055671;28;20413;-79
2023/04/23 09:02:20;;;;;;;37.85;27.88;;;;;;;;;;5054133;28;20835;-79
2023/04/23 09:04:48;;;;;;;35.88;27.75;;;;;;;;;;5060223;28;20409;-79
2023/04/23 09:07:16;;;;;;;37.00;28.60;;;;;;;;;;5055901;28;20841;-80
2023/04/23 09:09:42;;;;;;;38.67;30.25;;;;;;;;;;5059644;28;20585;-81
2023/04/23 09:12:10;;;;;;;38.72;28.95;;;;;;;;;;5060874;28;20433;-80
2023/04/23 09:14:37;;;;;;;38.88;28.77;;;;;;;;;;5057480;28;20411;-79
2023/04/23 09:17:03;;;;;;;40.67;29.85;;;;;;;;;;5062740;28;20427;-80
2023/04/23 09:19:30;;;;;;;37.25;28.55;;;;;;;;;;5059821;28;20898;-81
2023/04/23 09:21:57;;;;;;;36.80;28.98;;;;;;;;;;5061262;28;20401;-78
2023/04/23 09:24:25;;;;;;;35.50;28.25;;;;;;;;;;5060156;28;20797;-79
2023/04/23 09:26:53;;;;;;;38.72;31.02;;;;;;;;;;5044575;28;20436;-81
2023/04/23 09:29:22;;;;;;;37.20;29.25;;;;;;;;;;5051425;28;20934;-80
2023/04/23 09:31:49;;;;;;;37.72;30.10;;;;;;;;;;5057025;28;20565;-79
2023/04/23 09:34:16;;;;;;;37.38;28.40;;;;;;;;;;5051186;28;20498;-80
2023/04/23 09:36:44;;;;;;;37.78;28.27;;;;;;;;;;5051069;28;20912;-79
2023/04/23 09:39:13;;;;;;;36.92;28.42;;;;;;;;;;5058549;28;20425;-82
2023/04/23 09:41:41;;;;;;;37.28;28.40;;;;;;;;;;5047470;28;20424;-79
2023/04/23 09:44:08;;;;;;;35.53;28.10;;;;;;;;;;5057045;28;20411;-82
2023/04/23 09:46:36;;;;;;;33.45;26.73;;;;;;;;;;5051547;28;20889;-81
2023/04/23 09:49:03;;;;;;;32.10;25.75;;;;;;;;;;5055035;28;20431;-81
2023/04/23 09:51:32;;;;;;;34.63;26.50;;;;;;;;;;5057541;28;20496;-79
2023/04/23 09:53:58;;;;;;;32.00;25.17;;;;;;;;;;5059382;28;20470;-80
2023/04/23 09:56:24;;;;;;;32.83;26.45;;;;;;;;;;5054469;28;20555;-80
2023/04/23 09:58:53;;;;;;;32.65;25.85;;;;;;;;;;5062701;28;20489;-79
2023/04/23 10:01:27;;;;;;;32.30;26.30;;;;;;;;;;5055976;28;20510;-79
2023/04/23 10:03:53;;;;;;;31.60;25.60;;;;;;;;;;5055958;28;20927;-79
2023/04/23 10:06:20;;;;;;;30.55;25.48;;;;;;;;;;5059667;28;20427;-81
2023/04/23 10:08:46;;;;;;;30.67;25.00;;;;;;;;;;5058755;28;20419;-81
2023/04/23 10:11:13;;;;;;;31.35;25.17;;;;;;;;;;5057829;28;20476;-81
2023/04/23 10:13:39;;;;;;;29.08;23.92;;;;;;;;;;5057564;28;20417;-81
2023/04/23 10:16:08;;;;;;;27.47;23.23;;;;;;;;;;5058974;28;20420;-80
2023/04/23 10:18:36;;;;;;;32.37;24.53;;;;;;;;;;5059506;28;20421;-81
2023/04/23 10:21:03;;;;;;;29.77;24.50;;;;;;;;;;5060275;28;20807;-79
2023/04/23 10:23:30;;;;;;;25.17;21.63;;;;;;;;;;5057060;28;20424;-79
2023/04/23 10:25:57;;;;;;;26.38;21.90;;;;;;;;;;5058240;28;20825;-80
2023/04/23 10:28:27;;;;;;;24.58;21.38;;;;;;;;;;5049992;28;20410;-80
2023/04/23 10:30:55;;;;;;;28.20;22.17;;;;;;;;;;5052011;28;20445;-80
2023/04/23 10:33:24;;;;;;;26.45;22.65;;;;;;;;;;5056740;28;20441;-80
2023/04/23 10:35:51;;;;;;;26.53;21.43;;;;;;;;;;5068510;28;20412;-80
2023/04/23 10:38:18;;;;;;;26.43;22.03;;;;;;;;;;5060248;28;20437;-80
2023/04/23 10:40:46;;;;;;;25.95;22.10;;;;;;;;;;5053225;28;20409;-79
2023/04/23 10:43:13;;;;;;;26.40;22.98;;;;;;;;;;5055386;28;20414;-80
2023/04/23 10:45:39;;;;;;;26.02;21.90;;;;;;;;;;5057031;28;20421;-80
2023/04/23 10:48:07;;;;;;;24.45;20.40;;;;;;;;;;5074406;28;20429;-80
2023/04/23 10:50:36;;;;;;;25.13;21.17;;;;;;;;;;5065514;28;20514;-79
2023/04/23 10:53:03;;;;;;;25.42;22.33;;;;;;;;;;5058373;28;20420;-80
2023/04/23 10:55:30;;;;;;;24.75;20.52;;;;;;;;;;5053027;28;20417;-79
2023/04/23 10:58:01;;;;;;;24.93;21.60;;;;;;;;;;5053944;28;20808;-79
2023/04/23 11:00:28;;;;;;;23.50;19.95;;;;;;;;;;5060473;28;20423;-80
2023/04/23 11:02:54;;;;;;;21.40;19.10;;;;;;;;;;5058667;28;20416;-80
2023/04/23 11:05:22;;;;;;;23.40;19.90;;;;;;;;;;5056700;28;20421;-80
2023/04/23 11:08:05;;;;;;;23.75;19.52;;;;;;;;;;5065790;28;20498;-80
2023/04/23 11:10:32;;;;;;;22.55;19.83;;;;;;;;;;5058720;28;20484;-79
2023/04/23 11:13:18;;;;;;;24.10;20.10;;;;;;;;;;5063800;28;21048;-80
2023/04/23 11:15:46;;;;;;;23.10;18.92;;;;;;;;;;5061876;28;20417;-79
2023/04/23 11:18:12;;;;;;;20.92;18.02;;;;;;;;;;5052809;28;20475;-80
2023/04/23 11:20:40;;;;;;;21.98;17.88;;;;;;;;;;5055271;28;20424;-80
2023/04/23 11:23:28;;;;;;;22.10;19.77;;;;;;;;;;5069500;28;20412;-80
2023/04/23 11:25:55;;;;;;;21.73;18.30;;;;;;;;;;5049929;28;20431;-80
2023/04/23 11:28:21;;;;;;;20.77;17.17;;;;;;;;;;5062643;28;20917;-80
2023/04/23 11:30:50;;;;;;;22.85;17.75;;;;;;;;;;5056817;28;20401;-80
2023/04/23 11:33:17;;;;;;;19.83;16.50;;;;;;;;;;5061225;28;20429;-80
2023/04/23 11:35:43;;;;;;;21.60;18.27;;;;;;;;;;5061933;28;20920;-80
2023/04/23 11:38:11;;;;;;;20.45;17.02;;;;;;;;;;5049486;28;20437;-80
2023/04/23 11:40:39;;;;;;;23.10;18.67;;;;;;;;;;5060663;28;20414;-80
2023/04/23 11:43:05;;;;;;;22.95;17.77;;;;;;;;;;5059838;28;20409;-80
2023/04/23 11:45:31;;;;;;;21.97;17.90;;;;;;;;;;5063610;28;20428;-80
2023/04/23 11:47:58;;;;;;;20.55;18.25;;;;;;;;;;5061898;28;20413;-80
2023/04/23 11:50:25;;;;;;;21.33;17.90;;;;;;;;;;5062271;28;20420;-80
2023/04/23 11:52:52;;;;;;;22.27;18.35;;;;;;;;;;5054464;28;20427;-80
2023/04/23 11:55:20;;;;;;;24.55;19.00;;;;;;;;;;5058847;28;20420;-79
2023/04/23 11:57:48;;;;;;;21.73;18.77;;;;;;;;;;5061268;28;20439;-80
2023/04/23 12:00:16;;;;;;;22.55;19.33;;;;;;;;;;5066056;28;20463;-79
2023/04/23 12:02:52;;;;;;;22.75;18.70;;;;;;;;;;5061712;28;20449;-80
2023/04/23 12:05:21;;;;;;;19.55;17.48;;;;;;;;;;5061539;28;20417;-80
2023/04/23 12:07:48;;;;;;;19.50;16.27;;;;;;;;;;5056499;28;20512;-80
2023/04/23 12:10:16;;;;;;;18.48;16.42;;;;;;;;;;5056621;28;21104;-80
2023/04/23 12:12:44;;;;;;;19.20;17.10;;;;;;;;;;5060066;28;20903;-80
2023/04/23 12:15:11;;;;;;;18.65;16.65;;;;;;;;;;5062536;28;20416;-80
2023/04/23 12:17:37;;;;;;;21.87;16.60;;;;;;;;;;5061068;28;20432;-80
2023/04/23 12:20:05;;;;;;;20.05;16.88;;;;;;;;;;5060541;28;20421;-80
2023/04/23 12:22:32;;;;;;;12.20;10.47;;;;;;;;;;5064177;28;20428;-80
2023/04/23 12:25:00;;;;;;;11.93;9.52;;;;;;;;;;5058902;28;20906;-80
2023/04/23 12:27:27;;;;;;;11.80;8.98;;;;;;;;;;5062396;28;20421;-80
2023/04/23 12:30:00;;;;;;;10.93;9.83;;;;;;;;;;5059121;28;20492;-80
2023/04/23 12:32:27;;;;;;;10.60;9.50;;;;;;;;;;5062585;28;20433;-81
2023/04/23 12:34:53;;;;;;;10.00;9.00;;;;;;;;;;5058327;28;20418;-80
2023/04/23 12:37:23;;;;;;;9.95;8.95;;;;;;;;;;5062862;28;20408;-80
2023/04/23 12:39:49;;;;;;;14.00;11.10;;;;;;;;;;5064133;28;20423;-80
2023/04/23 12:42:16;;;;;;;12.43;11.10;;;;;;;;;;5060687;28;20788;-80
2023/04/23 12:44:42;;;;;;;13.82;11.35;;;;;;;;;;5059403;28;20410;-80
2023/04/23 12:47:10;;;;;;;12.15;10.95;;;;;;;;;;5056426;28;20422;-80
2023/04/23 12:49:38;;;;;;;11.30;10.10;;;;;;;;;;5058184;28;20413;-80
2023/04/23 12:52:05;;;;;;;13.45;9.82;;;;;;;;;;5064014;28;20899;-80
2023/04/23 12:54:32;;;;;;;12.02;9.70;;;;;;;;;;5059740;28;20410;-79
2023/04/23 12:57:01;;;;;;;10.80;9.63;;;;;;;;;;5061205;28;20413;-79
2023/04/23 12:59:27;;;;;;;10.75;8.20;;;;;;;;;;5064274;28;20418;-80
2023/04/23 13:01:54;;;;;;;10.02;9.02;;;;;;;;;;5061432;28;20413;-80
2023/04/23 13:04:22;;;;;;;9.30;8.40;;;;;;;;;;5067070;28;20768;-80
2023/04/23 13:06:48;;;;;;;9.23;8.32;;;;;;;;;;5055794;28;20443;-80
2023/04/23 13:09:15;;;;;;;8.80;7.43;;;;;;;;;;5053823;28;20409;-80
2023/04/23 13:11:41;;;;;;;9.07;8.27;;;;;;;;;;5057992;28;20448;-80
2023/04/23 13:14:07;;;;;;;11.23;9.00;;;;;;;;;;5062696;28;20429;-80
2023/04/23 13:16:35;;;;;;;9.95;9.00;;;;;;;;;;5058508;28;20814;-80
2023/04/23 13:19:01;;;;;;;9.00;8.13;;;;;;;;;;5060627;28;20415;-80
2023/04/23 13:21:29;;;;;;;9.27;8.35;;;;;;;;;;5052930;28;20492;-80
2023/04/23 13:23:56;;;;;;;9.20;8.38;;;;;;;;;;5060535;28;20425;-80
2023/04/23 13:26:23;;;;;;;9.98;9.07;;;;;;;;;;5059024;28;20413;-80
2023/04/23 13:28:50;;;;;;;8.70;7.90;;;;;;;;;;5057302;28;20905;-80
2023/04/23 13:31:17;;;;;;;9.75;8.75;;;;;;;;;;5064759;28;20414;-80
2023/04/23 13:33:43;;;;;;;9.23;8.13;;;;;;;;;;5056616;28;20432;-80
2023/04/23 13:36:09;;;;;;;8.82;7.50;;;;;;;;;;5050820;28;20423;-80
2023/04/23 13:38:37;;;;;;;9.70;8.00;;;;;;;;;;5041496;28;20429;-80
2023/04/23 13:41:04;;;;;;;7.20;6.50;;;;;;;;;;5056533;28;20427;-80
2023/04/23 13:43:31;;;;;;;9.43;7.90;;;;;;;;;;5055184;28;20408;-79
2023/04/23 13:45:59;;;;;;;10.15;7.65;;;;;;;;;;5056854;28;20409;-79
2023/04/23 13:48:29;;;;;;;6.93;6.30;;;;;;;;;;5057515;28;20435;-80
2023/04/23 13:50:56;;;;;;;6.72;5.95;;;;;;;;;;5058507;28;20429;-80
2023/04/23 13:53:22;;;;;;;6.83;6.17;;;;;;;;;;5053580;28;20456;-79
2023/04/23 13:55:50;;;;;;;7.93;6.60;;;;;;;;;;5057123;28;20922;-80
2023/04/23 13:58:16;;;;;;;10.15;6.40;;;;;;;;;;5059858;28;20415;-80
2023/04/23 14:00:43;;;;;;;7.20;5.57;;;;;;;;;;5056189;28;20431;-80
2023/04/23 14:03:10;;;;;;;7.05;6.30;;;;;;;;;;5055361;28;20408;-80
2023/04/23 14:05:37;;;;;;;7.32;6.63;;;;;;;;;;5058715;28;20966;-80
2023/04/23 14:08:03;;;;;;;6.68;5.93;;;;;;;;;;5055080;28;20443;-81
2023/04/23 14:10:29;;;;;;;7.40;6.70;;;;;;;;;;5063724;28;20903;-80
2023/04/23 14:12:57;;;;;;;8.90;7.00;;;;;;;;;;5049712;28;20462;-79
2023/04/23 14:15:24;;;;;;;8.50;6.90;;;;;;;;;;5062028;28;20442;-80
2023/04/23 14:17:50;;;;;;;7.90;6.32;;;;;;;;;;5058211;28;20899;-79